Time;durP1;ratioP1;P1;durP2;ratioP2;P2;SDS_P1;SDS_P2;PMS_P1;PMS_P2;Temp;Humidity;BMP_temperature;BMP_pressure;BME280_temperature;BME280_humidity;BME280_pressure;Samples;Min_cycle;Max_cycle;Signal;HPM_P1;HPM_P2
2023/09/28 00:00:58;;;;;;;5.50;4.22;;;12.20;99.90;;;;;;2075859;28;20244;-83
2023/09/28 00:01:58;;;;;;;5.32;4.18;;;12.20;99.90;;;;;;2067655;28;20270;-82
2023/09/28 00:03:00;;;;;;;4.73;4.00;;;12.20;99.90;;;;;;2071678;28;20287;-82
2023/09/28 00:04:01;;;;;;;5.93;4.15;;;12.00;99.90;;;;;;2081534;28;20292;-82
2023/09/28 00:05:02;;;;;;;5.10;4.40;;;12.10;99.90;;;;;;2073545;28;20237;-81
2023/09/28 00:06:02;;;;;;;5.33;4.30;;;12.10;99.90;;;;;;2069547;28;20226;-82
2023/09/28 00:07:03;;;;;;;5.13;4.03;;;12.10;99.90;;;;;;2067441;28;20264;-82
2023/09/28 00:08:03;;;;;;;7.20;4.00;;;12.10;99.90;;;;;;2063834;28;20361;-82
2023/09/28 00:09:04;;;;;;;5.50;4.10;;;12.10;99.90;;;;;;2064282;28;20208;-82
2023/09/28 00:10:07;;;;;;;4.97;4.47;;;12.20;99.90;;;;;;2072587;28;20264;-82
2023/09/28 00:11:08;;;;;;;4.65;4.10;;;12.20;99.90;;;;;;2073335;28;20245;-82
2023/09/28 00:12:08;;;;;;;4.50;4.03;;;12.10;99.90;;;;;;2073021;28;20194;-81
2023/09/28 00:13:09;;;;;;;5.83;4.20;;;12.00;99.90;;;;;;2073162;28;20177;-82
2023/09/28 00:14:09;;;;;;;4.70;4.00;;;12.00;99.90;;;;;;2072176;28;20185;-81
2023/09/28 00:15:10;;;;;;;5.13;4.10;;;12.10;99.90;;;;;;2064512;28;20186;-82
2023/09/28 00:16:11;;;;;;;4.90;3.90;;;12.20;99.90;;;;;;2074516;28;20217;-83
2023/09/28 00:17:12;;;;;;;5.67;3.90;;;12.10;99.90;;;;;;2073925;28;20667;-82
2023/09/28 00:18:12;;;;;;;4.38;3.85;;;12.00;99.90;;;;;;2074132;28;20236;-82
2023/09/28 00:19:13;;;;;;;4.53;3.63;;;12.10;99.90;;;;;;2074452;28;20212;-82
2023/09/28 00:20:20;;;;;;;4.90;4.00;;;12.10;99.90;;;;;;2073967;28;20185;-82
2023/09/28 00:21:21;;;;;;;5.65;3.70;;;12.10;99.90;;;;;;2067509;28;20185;-82
2023/09/28 00:22:21;;;;;;;4.40;4.00;;;12.10;99.90;;;;;;2075608;28;20212;-82
2023/09/28 00:23:22;;;;;;;4.90;4.00;;;12.10;99.90;;;;;;2080271;28;20277;-82
2023/09/28 00:24:23;;;;;;;4.30;3.83;;;12.20;99.90;;;;;;2080230;28;20246;-82
2023/09/28 00:25:23;;;;;;;4.17;3.40;;;12.20;99.90;;;;;;2080631;28;20330;-81
2023/09/28 00:26:24;;;;;;;7.10;4.00;;;12.20;99.90;;;;;;2079380;28;20788;-81
2023/09/28 00:27:25;;;;;;;4.80;4.00;;;12.10;99.90;;;;;;2068585;28;20237;-82
2023/09/28 00:28:26;;;;;;;4.78;3.97;;;12.10;99.90;;;;;;2068635;28;20223;-82
2023/09/28 00:29:26;;;;;;;4.63;3.90;;;12.10;99.90;;;;;;2076093;28;20229;-82
2023/09/28 00:30:27;;;;;;;5.27;4.07;;;12.10;99.90;;;;;;2076372;28;20524;-83
2023/09/28 00:31:28;;;;;;;5.63;4.27;;;12.10;99.90;;;;;;2076234;28;20576;-82
2023/09/28 00:32:29;;;;;;;4.30;3.90;;;12.10;99.90;;;;;;2076297;28;20320;-83
2023/09/28 00:33:29;;;;;;;5.47;3.90;;;12.10;99.90;;;;;;2076035;28;20232;-82
2023/09/28 00:34:30;;;;;;;4.57;4.00;;;12.20;99.90;;;;;;2077381;28;20253;-82
2023/09/28 00:35:30;;;;;;;4.23;3.77;;;12.20;99.90;;;;;;2076202;28;20238;-83
2023/09/28 00:36:31;;;;;;;4.40;4.00;;;12.30;99.90;;;;;;2076079;28;20233;-83
2023/09/28 00:37:32;;;;;;;4.47;3.87;;;12.20;99.90;;;;;;2075920;28;20260;-82
2023/09/28 00:38:33;;;;;;;5.17;4.10;;;12.20;99.90;;;;;;2075730;28;20233;-82
2023/09/28 00:39:33;;;;;;;6.27;3.83;;;12.10;99.90;;;;;;2074919;28;20525;-82
2023/09/28 00:40:34;;;;;;;4.57;4.00;;;12.20;99.90;;;;;;2076521;28;20305;-82
2023/09/28 00:41:34;;;;;;;4.73;4.00;;;12.20;99.90;;;;;;2076272;28;20245;-81
2023/09/28 00:42:35;;;;;;;5.53;3.47;;;12.10;99.90;;;;;;2076742;28;20256;-82
2023/09/28 00:43:35;;;;;;;4.57;3.90;;;12.10;99.90;;;;;;2076752;28;20638;-82
2023/09/28 00:44:36;;;;;;;5.07;3.90;;;12.10;99.90;;;;;;2068777;28;20222;-82
2023/09/28 00:45:37;;;;;;;4.60;3.73;;;12.00;99.90;;;;;;2068218;28;20248;-83
2023/09/28 00:46:38;;;;;;;4.40;3.97;;;12.00;99.90;;;;;;2067829;28;20240;-83
2023/09/28 00:47:39;;;;;;;7.07;4.10;;;12.00;99.90;;;;;;2068217;28;20487;-82
2023/09/28 00:48:53;;;;;;;4.20;3.80;;;12.00;99.90;;;;;;2076493;28;20257;-81
2023/09/28 00:49:55;;;;;;;4.93;3.70;;;12.00;99.90;;;;;;2074649;28;20232;-83
2023/09/28 00:50:55;;;;;;;4.53;3.83;;;12.00;99.90;;;;;;2067284;28;20257;-82
2023/09/28 00:51:56;;;;;;;4.93;3.90;;;11.90;99.90;;;;;;2066701;28;20238;-82
2023/09/28 00:53:04;;;;;;;4.23;3.83;;;12.00;99.90;;;;;;2066411;28;20242;-82
2023/09/28 00:54:11;;;;;;;5.22;3.90;;;11.90;99.90;;;;;;2072133;28;20213;-82
2023/09/28 00:55:14;;;;;;;4.40;4.00;;;11.90;99.90;;;;;;2075785;28;20185;-82
2023/09/28 00:56:15;;;;;;;5.82;3.78;;;11.90;99.90;;;;;;2075973;28;20186;-83
2023/09/28 00:57:16;;;;;;;4.30;3.83;;;12.00;99.90;;;;;;2075421;28;20300;-83
2023/09/28 00:58:16;;;;;;;4.67;4.17;;;11.90;99.90;;;;;;2075845;28;20636;-83
2023/09/28 00:59:18;;;;;;;5.20;4.33;;;11.90;99.90;;;;;;2075762;28;20297;-82
2023/09/28 01:00:26;;;;;;;4.60;3.83;;;11.90;99.90;;;;;;2074530;28;20253;-83
2023/09/28 01:01:27;;;;;;;5.10;3.97;;;12.00;99.90;;;;;;2068172;28;20326;-82
2023/09/28 01:02:27;;;;;;;4.35;3.95;;;11.90;99.90;;;;;;2065202;28;20317;-82
2023/09/28 01:03:28;;;;;;;4.60;3.70;;;11.90;99.90;;;;;;2072761;28;20735;-83
2023/09/28 01:04:28;;;;;;;3.77;3.37;;;11.80;99.90;;;;;;2071493;28;20237;-82
2023/09/28 01:05:40;;;;;;;5.20;3.63;;;11.70;99.90;;;;;;2072425;28;20288;-83
2023/09/28 01:06:41;;;;;;;6.43;3.83;;;11.70;99.90;;;;;;2081405;28;20273;-82
2023/09/28 01:07:41;;;;;;;4.75;4.07;;;11.60;99.90;;;;;;2071442;28;20229;-81
2023/09/28 01:08:42;;;;;;;4.63;4.00;;;11.70;99.90;;;;;;2057985;28;20270;-82
2023/09/28 01:09:43;;;;;;;5.43;4.23;;;11.70;99.90;;;;;;2073026;28;20265;-83
2023/09/28 01:10:44;;;;;;;5.33;4.20;;;11.80;99.90;;;;;;2076915;28;20228;-82
2023/09/28 01:11:45;;;;;;;4.97;4.20;;;11.80;99.90;;;;;;2076259;28;20225;-83
2023/09/28 01:12:47;;;;;;;4.53;3.77;;;11.90;99.90;;;;;;2076469;28;20229;-84
2023/09/28 01:13:49;;;;;;;5.20;4.00;;;12.00;99.90;;;;;;2076095;28;20240;-83
2023/09/28 01:14:56;;;;;;;4.82;3.60;;;11.90;99.90;;;;;;2076181;28;20249;-83
2023/09/28 01:15:56;;;;;;;4.10;3.70;;;12.00;99.90;;;;;;2076328;28;20238;-82
2023/09/28 01:16:58;;;;;;;6.00;3.67;;;12.00;99.90;;;;;;2077243;28;20649;-83
2023/09/28 01:17:59;;;;;;;6.85;4.00;;;12.10;98.80;;;;;;2075834;28;20252;-82
2023/09/28 01:18:59;;;;;;;5.23;4.10;;;12.00;99.70;;;;;;2075963;28;20298;-83
2023/09/28 01:20:00;;;;;;;4.07;3.50;;;11.90;99.90;;;;;;2075045;28;20285;-83
2023/09/28 01:21:01;;;;;;;4.77;3.90;;;11.80;99.90;;;;;;2084810;28;20333;-83
2023/09/28 01:22:02;;;;;;;4.20;3.80;;;11.80;99.90;;;;;;2083583;28;20296;-83
2023/09/28 01:23:07;;;;;;;5.93;3.88;;;11.80;99.90;;;;;;2084087;28;20247;-82
2023/09/28 01:24:08;;;;;;;5.53;4.20;;;11.70;99.90;;;;;;2075401;28;20697;-83
2023/09/28 01:25:09;;;;;;;4.97;3.97;;;11.70;99.90;;;;;;2075293;28;20182;-83
2023/09/28 01:26:10;;;;;;;4.80;4.15;;;11.80;99.90;;;;;;2076270;28;20182;-83
2023/09/28 01:27:10;;;;;;;4.53;3.73;;;11.80;99.90;;;;;;2074584;28;20194;-83
2023/09/28 01:28:11;;;;;;;5.33;3.87;;;11.90;99.90;;;;;;2075473;28;20209;-84
2023/09/28 01:29:12;;;;;;;5.97;4.23;;;12.00;99.90;;;;;;2075877;28;20190;-83
2023/09/28 01:30:14;;;;;;;5.00;3.83;;;12.00;99.90;;;;;;2075247;28;20218;-83
2023/09/28 01:31:14;;;;;;;5.15;4.20;;;12.10;99.90;;;;;;2076159;28;20197;-84
2023/09/28 01:32:15;;;;;;;4.63;4.00;;;12.10;99.40;;;;;;2075935;28;20272;-86
2023/09/28 01:33:15;;;;;;;5.50;4.17;;;12.00;99.70;;;;;;2074854;28;20209;-83
2023/09/28 01:34:16;;;;;;;4.30;3.70;;;12.20;99.90;;;;;;2075388;28;20272;-83
2023/09/28 01:35:17;;;;;;;5.10;3.90;;;12.10;99.70;;;;;;2074826;28;20601;-83
2023/09/28 01:36:17;;;;;;;4.73;4.10;;;12.20;99.80;;;;;;2075840;28;20185;-83
2023/09/28 01:37:23;;;;;;;4.83;4.10;;;12.20;99.70;;;;;;2075331;28;20185;-84
2023/09/28 01:38:39;;;;;;;5.40;3.58;;;12.20;99.70;;;;;;2076174;28;20237;-83
2023/09/28 01:39:40;;;;;;;4.53;3.78;;;12.20;99.90;;;;;;2067789;28;20222;-83
2023/09/28 01:40:42;;;;;;;4.45;3.90;;;12.10;99.50;;;;;;2067609;28;20238;-83
2023/09/28 01:41:42;;;;;;;4.65;3.78;;;12.00;99.90;;;;;;2074107;28;20229;-84
2023/09/28 01:42:43;;;;;;;4.77;4.00;;;12.00;99.90;;;;;;2075161;28;20241;-83
2023/09/28 01:43:44;;;;;;;5.70;4.10;;;12.00;99.90;;;;;;2071918;28;20403;-82
2023/09/28 01:44:45;;;;;;;4.43;3.97;;;12.00;99.90;;;;;;2068566;28;20248;-82
2023/09/28 01:45:46;;;;;;;4.15;3.70;;;12.10;99.90;;;;;;2073941;28;20718;-82
2023/09/28 01:46:46;;;;;;;5.70;3.83;;;12.10;99.90;;;;;;2065333;28;20575;-83
2023/09/28 01:47:47;;;;;;;5.10;3.70;;;12.10;99.90;;;;;;2072820;28;20241;-82
2023/09/28 01:48:48;;;;;;;4.80;3.70;;;12.10;99.90;;;;;;2073894;28;20236;-83
2023/09/28 01:49:48;;;;;;;5.13;3.57;;;12.10;99.90;;;;;;2074003;28;20253;-83
2023/09/28 01:50:49;;;;;;;5.63;3.87;;;12.10;99.90;;;;;;2074513;28;20222;-82
2023/09/28 01:51:49;;;;;;;5.00;3.60;;;12.20;99.90;;;;;;2065042;28;20256;-83
2023/09/28 01:52:50;;;;;;;4.73;3.57;;;12.10;99.90;;;;;;2060755;28;20253;-82
2023/09/28 01:53:50;;;;;;;4.00;3.50;;;12.10;99.90;;;;;;2066491;28;20288;-82
2023/09/28 01:54:51;;;;;;;4.10;3.60;;;12.20;99.90;;;;;;2074747;28;20293;-81
2023/09/28 01:55:52;;;;;;;5.33;3.93;;;12.00;99.90;;;;;;2082159;28;20296;-82
2023/09/28 01:56:52;;;;;;;6.47;3.80;;;12.00;99.90;;;;;;2074921;28;20264;-82
2023/09/28 01:57:53;;;;;;;4.70;3.70;;;12.00;99.90;;;;;;2073844;28;20798;-82
2023/09/28 01:58:53;;;;;;;3.93;3.50;;;12.10;99.90;;;;;;2070047;28;20379;-82
2023/09/28 01:59:54;;;;;;;4.30;3.60;;;12.10;99.90;;;;;;2077048;28;20301;-81
2023/09/28 02:00:54;;;;;;;4.20;3.43;;;12.10;99.70;;;;;;2080229;28;20223;-81
2023/09/28 02:01:55;;;;;;;5.13;3.30;;;12.10;99.50;;;;;;2079803;28;20329;-82
2023/09/28 02:02:56;;;;;;;5.00;3.63;;;12.20;99.20;;;;;;2075610;28;20233;-82
2023/09/28 02:03:57;;;;;;;3.88;3.40;;;12.10;99.20;;;;;;2076993;28;20696;-83
2023/09/28 02:04:57;;;;;;;6.70;4.30;;;12.20;99.20;;;;;;2075398;28;20267;-82
2023/09/28 02:05:58;;;;;;;4.33;3.27;;;12.10;99.60;;;;;;2074189;28;20301;-83
2023/09/28 02:06:58;;;;;;;7.97;3.70;;;12.10;99.60;;;;;;2065342;28;20249;-81
2023/09/28 02:07:59;;;;;;;4.60;3.30;;;12.10;99.40;;;;;;2075507;28;20329;-83
2023/09/28 02:09:00;;;;;;;5.57;3.60;;;12.00;99.70;;;;;;2075951;28;20859;-83
2023/09/28 02:10:01;;;;;;;4.33;3.73;;;12.00;99.50;;;;;;2075127;28;20255;-83
2023/09/28 02:11:01;;;;;;;3.87;3.17;;;12.00;99.40;;;;;;2075753;28;20241;-82
2023/09/28 02:12:03;;;;;;;4.20;3.40;;;11.90;99.90;;;;;;2067710;28;20502;-83
2023/09/28 02:13:04;;;;;;;3.90;3.47;;;12.00;99.70;;;;;;2066585;28;20226;-82
2023/09/28 02:14:05;;;;;;;4.22;3.17;;;12.00;98.90;;;;;;2075556;28;20208;-83
2023/09/28 02:15:08;;;;;;;5.07;3.73;;;12.00;98.80;;;;;;2076336;28;20225;-82
2023/09/28 02:16:10;;;;;;;5.82;3.88;;;12.00;99.10;;;;;;2072215;28;20761;-83
2023/09/28 02:17:10;;;;;;;5.45;3.72;;;12.00;99.60;;;;;;2075751;28;20265;-82
2023/09/28 02:18:11;;;;;;;5.63;3.90;;;12.00;99.70;;;;;;2075904;28;20186;-83
2023/09/28 02:19:12;;;;;;;4.30;3.80;;;12.00;99.70;;;;;;2072822;28;20187;-82
2023/09/28 02:20:18;;;;;;;5.13;3.70;;;12.00;99.70;;;;;;2075628;28;20174;-82
2023/09/28 02:21:19;;;;;;;4.25;3.60;;;12.10;99.60;;;;;;2077597;28;20174;-83
2023/09/28 02:22:19;;;;;;;5.17;3.80;;;12.10;99.50;;;;;;2076325;28;20197;-82
2023/09/28 02:23:22;;;;;;;5.20;4.00;;;12.10;99.60;;;;;;2059768;28;20622;-82
2023/09/28 02:24:22;;;;;;;4.53;3.33;;;12.00;99.60;;;;;;2067881;28;20183;-83
2023/09/28 02:25:24;;;;;;;5.93;3.73;;;12.10;99.60;;;;;;2075142;28;21292;-83
2023/09/28 02:26:25;;;;;;;5.30;3.58;;;12.10;99.50;;;;;;2076033;28;20236;-83
2023/09/28 02:27:26;;;;;;;4.13;3.43;;;12.20;99.50;;;;;;2075825;28;20272;-82
2023/09/28 02:28:26;;;;;;;4.00;3.50;;;12.20;99.50;;;;;;2077090;28;20820;-82
2023/09/28 02:29:27;;;;;;;5.10;3.93;;;12.20;99.60;;;;;;2068252;28;20261;-82
2023/09/28 02:30:27;;;;;;;3.80;3.40;;;12.10;99.90;;;;;;2076886;28;20259;-83
2023/09/28 02:31:28;;;;;;;5.17;3.20;;;12.00;99.90;;;;;;2076641;28;20289;-81
2023/09/28 02:32:29;;;;;;;5.20;3.60;;;12.00;99.90;;;;;;2077272;28;20289;-83
2023/09/28 02:33:29;;;;;;;5.63;3.87;;;12.00;99.90;;;;;;2076113;28;20234;-83
2023/09/28 02:34:33;;;;;;;4.10;3.17;;;12.00;99.90;;;;;;2076432;28;20240;-83
2023/09/28 02:35:34;;;;;;;4.68;3.40;;;12.00;99.90;;;;;;2078349;28;20267;-82
2023/09/28 02:36:35;;;;;;;4.53;3.77;;;12.00;99.80;;;;;;2076870;28;20229;-83
2023/09/28 02:37:36;;;;;;;5.03;3.72;;;12.00;99.70;;;;;;2076199;28;20241;-82
2023/09/28 02:38:36;;;;;;;4.10;3.57;;;12.10;99.40;;;;;;2076509;28;20634;-83
2023/09/28 02:39:37;;;;;;;3.20;2.90;;;12.10;99.40;;;;;;2077597;28;20236;-83
2023/09/28 02:40:38;;;;;;;6.57;3.50;;;12.10;99.30;;;;;;2070970;28;20229;-83
2023/09/28 02:41:38;;;;;;;5.47;3.60;;;12.10;99.30;;;;;;2073762;28;20286;-82
2023/09/28 02:42:40;;;;;;;4.57;3.60;;;12.10;99.30;;;;;;2066970;28;20699;-83
2023/09/28 02:43:40;;;;;;;4.47;3.35;;;12.10;99.50;;;;;;2066297;28;20305;-83
2023/09/28 02:44:42;;;;;;;4.67;3.43;;;12.10;99.50;;;;;;2068106;28;20297;-82
2023/09/28 02:45:43;;;;;;;5.82;3.45;;;12.10;99.50;;;;;;2076299;28;20233;-83
2023/09/28 02:46:43;;;;;;;3.80;3.17;;;12.10;99.00;;;;;;2083805;28;20303;-83
2023/09/28 02:47:48;;;;;;;3.83;3.20;;;12.20;99.10;;;;;;2075821;28;20275;-83
2023/09/28 02:48:48;;;;;;;4.53;3.08;;;12.20;99.20;;;;;;2072871;28;20320;-83
2023/09/28 02:49:49;;;;;;;4.87;3.43;;;12.30;99.20;;;;;;2071618;28;20226;-82
2023/09/28 02:50:50;;;;;;;3.90;3.43;;;12.30;99.00;;;;;;2068158;28;20622;-82
2023/09/28 02:51:50;;;;;;;4.23;3.20;;;12.30;99.00;;;;;;2069597;28;20609;-82
2023/09/28 02:52:52;;;;;;;4.10;3.60;;;12.30;98.90;;;;;;2069157;28;20313;-82
2023/09/28 02:53:53;;;;;;;5.00;3.90;;;12.40;98.80;;;;;;2070004;28;20230;-81
2023/09/28 02:54:54;;;;;;;5.13;3.40;;;12.40;98.60;;;;;;2069936;28;20232;-82
2023/09/28 02:55:54;;;;;;;4.90;3.53;;;12.40;98.60;;;;;;2074812;28;20225;-82
2023/09/28 02:56:55;;;;;;;4.77;3.37;;;12.40;98.60;;;;;;2068793;28;20268;-83
2023/09/28 02:57:56;;;;;;;4.00;3.60;;;12.40;98.70;;;;;;2067954;28;20317;-84
2023/09/28 02:58:57;;;;;;;4.80;3.23;;;12.40;98.90;;;;;;2068575;28;20226;-82
2023/09/28 02:59:58;;;;;;;3.83;3.07;;;12.50;98.50;;;;;;2077386;28;20226;-82
2023/09/28 03:00:59;;;;;;;4.50;3.35;;;12.40;98.10;;;;;;2065875;28;20230;-84
2023/09/28 03:01:59;;;;;;;4.20;3.20;;;12.30;98.40;;;;;;2068148;28;20241;-82
2023/09/28 03:03:03;;;;;;;4.03;3.33;;;12.30;98.60;;;;;;2074104;28;20256;-83
2023/09/28 03:04:03;;;;;;;5.63;3.47;;;12.20;98.70;;;;;;2075879;28;20235;-83
2023/09/28 03:05:04;;;;;;;5.40;3.33;;;12.20;99.00;;;;;;2082349;28;20628;-82
2023/09/28 03:06:05;;;;;;;3.65;3.03;;;12.20;99.00;;;;;;2074755;28;20257;-82
2023/09/28 03:07:06;;;;;;;3.97;3.10;;;12.30;98.90;;;;;;2065878;28;20201;-82
2023/09/28 03:08:09;;;;;;;4.57;3.40;;;12.30;98.50;;;;;;2065932;28;20206;-81
2023/09/28 03:09:09;;;;;;;4.10;3.35;;;12.40;98.10;;;;;;2073873;28;20225;-82
2023/09/28 03:10:12;;;;;;;3.87;3.20;;;12.30;97.80;;;;;;2076700;28;20344;-81
2023/09/28 03:11:13;;;;;;;3.85;3.20;;;12.40;97.80;;;;;;2080053;28;20182;-81
2023/09/28 03:12:14;;;;;;;4.13;2.92;;;12.50;97.90;;;;;;2080285;28;20209;-81
2023/09/28 03:13:14;;;;;;;4.50;3.47;;;12.40;97.50;;;;;;2071613;28;20175;-81
2023/09/28 03:14:15;;;;;;;5.20;3.50;;;12.50;97.50;;;;;;2072352;28;20270;-81
2023/09/28 03:15:16;;;;;;;5.23;3.00;;;12.50;97.70;;;;;;2086022;28;20323;-82
2023/09/28 03:16:17;;;;;;;4.20;3.15;;;12.50;97.50;;;;;;2085788;28;20196;-82
2023/09/28 03:17:17;;;;;;;5.33;3.33;;;12.50;97.50;;;;;;2084541;28;20211;-83
2023/09/28 03:18:18;;;;;;;4.63;3.70;;;12.50;97.80;;;;;;2077358;28;20199;-83
2023/09/28 03:19:18;;;;;;;4.23;3.20;;;12.50;98.10;;;;;;2076568;28;20249;-83
2023/09/28 03:20:21;;;;;;;4.73;3.33;;;12.50;98.10;;;;;;2075983;28;20769;-82
2023/09/28 03:21:22;;;;;;;4.53;3.20;;;12.50;97.80;;;;;;2076341;28;20690;-83
2023/09/28 03:22:22;;;;;;;3.30;2.70;;;12.60;96.40;;;;;;2069614;28;20249;-83
2023/09/28 03:23:23;;;;;;;3.77;2.93;;;12.60;95.80;;;;;;2076114;28;20337;-82
2023/09/28 03:24:23;;;;;;;4.50;3.33;;;12.60;95.00;;;;;;2076540;28;20241;-83
2023/09/28 03:25:24;;;;;;;4.90;3.43;;;12.60;94.40;;;;;;2076614;28;20256;-83
2023/09/28 03:26:26;;;;;;;4.70;3.20;;;12.60;94.50;;;;;;2076469;28;20253;-82
2023/09/28 03:27:27;;;;;;;4.15;3.13;;;12.60;95.10;;;;;;2066272;28;20726;-83
2023/09/28 03:28:30;;;;;;;4.30;2.67;;;12.60;95.50;;;;;;2073717;28;20328;-83
2023/09/28 03:29:31;;;;;;;5.15;3.40;;;12.70;94.50;;;;;;2072896;28;20298;-82
2023/09/28 03:30:31;;;;;;;4.67;3.50;;;12.60;94.20;;;;;;2073478;28;20233;-82
2023/09/28 03:31:33;;;;;;;4.27;3.10;;;12.60;93.70;;;;;;2074103;28;20677;-82
2023/09/28 03:32:33;;;;;;;3.75;2.97;;;12.50;93.90;;;;;;2077539;28;20316;-81
2023/09/28 03:33:34;;;;;;;3.93;3.10;;;12.40;94.20;;;;;;2080853;28;20316;-81
2023/09/28 03:34:35;;;;;;;3.83;2.87;;;12.40;94.00;;;;;;2081061;28;20243;-82
2023/09/28 03:35:35;;;;;;;4.93;2.90;;;12.50;93.30;;;;;;2079724;28;20628;-83
2023/09/28 03:36:37;;;;;;;4.23;3.10;;;12.60;92.30;;;;;;2077042;28;20237;-83
2023/09/28 03:37:38;;;;;;;4.63;2.78;;;12.70;91.40;;;;;;2067515;28;20217;-83
2023/09/28 03:38:39;;;;;;;3.63;2.85;;;12.70;90.80;;;;;;2066464;28;20233;-82
2023/09/28 03:39:40;;;;;;;4.30;3.20;;;12.80;90.70;;;;;;2065625;28;20253;-82
2023/09/28 03:40:43;;;;;;;6.37;3.33;;;12.80;90.50;;;;;;2066315;28;20581;-83
2023/09/28 03:41:44;;;;;;;4.20;3.00;;;12.80;91.10;;;;;;2069509;28;20472;-82
2023/09/28 03:42:48;;;;;;;5.07;2.93;;;12.80;90.90;;;;;;2067482;28;20651;-83
2023/09/28 03:43:48;;;;;;;4.32;3.10;;;12.90;91.00;;;;;;2064790;28;20285;-82
2023/09/28 03:44:49;;;;;;;4.30;3.03;;;12.90;90.50;;;;;;2067711;28;20268;-83
2023/09/28 03:45:49;;;;;;;4.57;3.17;;;13.00;91.70;;;;;;2060987;28;20729;-83
2023/09/28 03:46:50;;;;;;;4.90;3.10;;;12.90;93.00;;;;;;2076280;28;20314;-83
2023/09/28 03:47:52;;;;;;;4.10;3.10;;;12.90;93.80;;;;;;2075629;28;20265;-82
2023/09/28 03:48:53;;;;;;;4.60;3.30;;;12.90;94.50;;;;;;2067567;28;20516;-83
2023/09/28 03:49:53;;;;;;;5.83;3.13;;;12.80;94.50;;;;;;2073160;28;20240;-83
2023/09/28 03:50:54;;;;;;;4.23;3.10;;;12.80;94.40;;;;;;2076212;28;20264;-83
2023/09/28 03:51:54;;;;;;;5.10;3.40;;;12.90;94.30;;;;;;2076308;28;20281;-83
2023/09/28 03:52:55;;;;;;;4.63;3.30;;;12.90;93.80;;;;;;2075420;28;20315;-82
2023/09/28 03:53:56;;;;;;;3.30;2.67;;;12.90;93.30;;;;;;2075978;28;20226;-82
2023/09/28 03:54:57;;;;;;;4.07;3.20;;;13.00;93.60;;;;;;2075177;28;20259;-83
2023/09/28 03:55:58;;;;;;;3.77;2.90;;;12.90;94.10;;;;;;2066705;28;20368;-82
2023/09/28 03:56:58;;;;;;;4.03;3.20;;;12.80;94.60;;;;;;2080152;28;20238;-82
2023/09/28 03:58:00;;;;;;;5.23;3.30;;;12.80;94.90;;;;;;2081975;28;20232;-81
2023/09/28 03:59:01;;;;;;;4.35;3.30;;;12.90;94.90;;;;;;2079143;28;20229;-82
2023/09/28 04:00:02;;;;;;;4.63;3.10;;;12.80;95.00;;;;;;2077718;28;20237;-82
2023/09/28 04:01:07;;;;;;;4.40;2.95;;;12.90;95.20;;;;;;2076489;28;20266;-82
2023/09/28 04:02:08;;;;;;;4.30;3.00;;;12.80;95.50;;;;;;2064642;28;20229;-82
2023/09/28 04:03:08;;;;;;;6.03;3.33;;;12.80;95.80;;;;;;2069560;28;20254;-82
2023/09/28 04:04:09;;;;;;;3.63;2.90;;;12.70;95.10;;;;;;2068609;28;20214;-82
2023/09/28 04:05:10;;;;;;;4.43;2.93;;;12.60;94.30;;;;;;2076730;28;20197;-82
2023/09/28 04:06:10;;;;;;;3.73;2.83;;;12.60;92.80;;;;;;2076513;28;20190;-81
2023/09/28 04:07:11;;;;;;;3.60;2.87;;;12.50;93.10;;;;;;2076094;28;20519;-82
2023/09/28 04:08:11;;;;;;;4.10;3.00;;;12.50;93.30;;;;;;2084395;28;20284;-82
2023/09/28 04:09:12;;;;;;;5.33;2.90;;;12.50;93.20;;;;;;2076246;28;20188;-83
2023/09/28 04:10:13;;;;;;;3.67;2.77;;;12.50;92.50;;;;;;2075898;28;20724;-82
2023/09/28 04:11:15;;;;;;;3.58;2.72;;;12.60;92.60;;;;;;2077138;28;20178;-83
2023/09/28 04:12:16;;;;;;;5.50;2.80;;;12.60;91.80;;;;;;2077332;28;20797;-83
2023/09/28 04:13:17;;;;;;;3.78;2.63;;;12.60;91.60;;;;;;2076719;28;20177;-82
2023/09/28 04:14:17;;;;;;;3.35;2.40;;;12.70;91.50;;;;;;2076534;28;20209;-81
2023/09/28 04:15:18;;;;;;;2.67;2.37;;;12.70;86.50;;;;;;2068515;28;20183;-82
2023/09/28 04:16:18;;;;;;;3.87;2.67;;;12.60;89.60;;;;;;2067916;28;20186;-82
2023/09/28 04:17:19;;;;;;;2.97;2.40;;;12.60;89.60;;;;;;2077062;28;20180;-82
2023/09/28 04:18:20;;;;;;;2.97;2.20;;;12.70;89.80;;;;;;2077149;28;20633;-82
2023/09/28 04:19:20;;;;;;;3.53;2.30;;;12.70;87.10;;;;;;2076562;28;20240;-83
2023/09/28 04:20:21;;;;;;;5.00;2.50;;;12.70;88.30;;;;;;2075789;28;20236;-82
2023/09/28 04:21:22;;;;;;;3.00;2.00;;;12.70;89.40;;;;;;2076207;28;20217;-82
2023/09/28 04:22:23;;;;;;;3.13;2.07;;;12.70;85.10;;;;;;2074870;28;20260;-82
2023/09/28 04:23:23;;;;;;;2.70;2.03;;;12.80;85.30;;;;;;2070511;28;20490;-82
2023/09/28 04:24:24;;;;;;;3.87;2.40;;;12.90;90.00;;;;;;2073416;28;20324;-82
2023/09/28 04:25:26;;;;;;;4.07;2.20;;;12.90;89.00;;;;;;2072790;28;20233;-82
2023/09/28 04:26:28;;;;;;;2.35;1.85;;;12.90;87.00;;;;;;2075709;28;20741;-82
2023/09/28 04:27:29;;;;;;;2.90;2.13;;;12.90;86.70;;;;;;2067730;28;20232;-82
2023/09/28 04:28:29;;;;;;;3.50;2.13;;;13.10;88.30;;;;;;2072853;28;20710;-83
2023/09/28 04:29:30;;;;;;;2.47;2.07;;;13.10;87.80;;;;;;2080460;28;20327;-82
2023/09/28 04:30:30;;;;;;;2.73;2.17;;;13.20;89.00;;;;;;2071795;28;20237;-82
2023/09/28 04:31:31;;;;;;;2.73;2.30;;;13.30;89.80;;;;;;2074789;28;20235;-83
2023/09/28 04:32:32;;;;;;;3.23;2.20;;;13.20;90.10;;;;;;2075299;28;20272;-83
2023/09/28 04:33:32;;;;;;;4.37;2.30;;;13.30;90.30;;;;;;2075435;28;20229;-83
2023/09/28 04:34:33;;;;;;;3.63;2.60;;;13.30;90.60;;;;;;2075052;28;20305;-83
2023/09/28 04:35:33;;;;;;;5.07;2.60;;;13.30;91.00;;;;;;2075116;28;20238;-83
2023/09/28 04:36:37;;;;;;;3.13;2.40;;;13.10;91.70;;;;;;2074923;28;20229;-83
2023/09/28 04:37:38;;;;;;;3.67;2.75;;;12.90;92.20;;;;;;2067714;28;20230;-83
2023/09/28 04:38:40;;;;;;;3.00;2.67;;;12.80;92.80;;;;;;2075095;28;20292;-82
2023/09/28 04:39:40;;;;;;;3.35;2.70;;;12.90;93.20;;;;;;2074452;28;20241;-82
2023/09/28 04:40:41;;;;;;;3.37;2.53;;;12.80;93.40;;;;;;2075109;28;20229;-83
2023/09/28 04:41:43;;;;;;;4.17;3.10;;;12.80;94.10;;;;;;2068120;28;20230;-83
2023/09/28 04:42:44;;;;;;;3.55;2.60;;;12.60;94.20;;;;;;2066811;28;20257;-83
2023/09/28 04:43:45;;;;;;;3.28;2.65;;;12.60;94.40;;;;;;2075619;28;20229;-83
2023/09/28 04:44:46;;;;;;;4.83;3.00;;;12.50;94.40;;;;;;2074845;28;20333;-82
2023/09/28 04:45:47;;;;;;;5.50;3.08;;;12.40;94.60;;;;;;2075888;28;20234;-82
2023/09/28 04:46:50;;;;;;;5.00;3.30;;;12.40;94.70;;;;;;2073499;28;20264;-81
2023/09/28 04:47:51;;;;;;;4.45;2.92;;;12.40;95.00;;;;;;2074690;28;20262;-84
2023/09/28 04:48:52;;;;;;;3.43;2.90;;;12.40;94.20;;;;;;2067669;28;20238;-83
2023/09/28 04:49:54;;;;;;;4.00;2.80;;;12.20;95.00;;;;;;2076061;28;20229;-83
2023/09/28 04:50:55;;;;;;;3.88;2.90;;;12.10;95.80;;;;;;2075388;28;20225;-84
2023/09/28 04:51:56;;;;;;;4.53;2.90;;;12.10;95.80;;;;;;2066640;28;20226;-82
2023/09/28 04:52:58;;;;;;;4.88;2.80;;;12.10;95.10;;;;;;2071316;28;20251;-81
2023/09/28 04:54:02;;;;;;;4.20;3.00;;;12.20;94.70;;;;;;2074184;28;20245;-82
2023/09/28 04:55:03;;;;;;;5.07;3.10;;;12.20;94.80;;;;;;2066425;28;20221;-82
2023/09/28 04:56:10;;;;;;;4.53;3.40;;;12.20;94.60;;;;;;2074159;28;20730;-83
2023/09/28 04:57:11;;;;;;;4.25;3.20;;;12.20;95.00;;;;;;2075887;28;20178;-82
2023/09/28 04:58:12;;;;;;;5.40;3.50;;;12.20;95.00;;;;;;2075216;28;20217;-83
2023/09/28 04:59:13;;;;;;;4.88;3.33;;;12.20;95.00;;;;;;2076404;28;20189;-82
2023/09/28 05:00:16;;;;;;;4.80;3.30;;;12.30;95.00;;;;;;2074285;28;20213;-83
2023/09/28 05:01:16;;;;;;;3.83;3.30;;;12.30;95.00;;;;;;2075518;28;20612;-83
2023/09/28 05:02:17;;;;;;;4.10;3.50;;;12.40;95.10;;;;;;2074892;28;20232;-83
2023/09/28 05:03:18;;;;;;;4.83;3.70;;;12.30;95.20;;;;;;2075348;28;20178;-83
2023/09/28 05:04:18;;;;;;;4.50;3.40;;;12.30;95.50;;;;;;2075344;28;20177;-83
2023/09/28 05:05:19;;;;;;;3.40;2.80;;;12.30;95.70;;;;;;2074131;28;20216;-82
2023/09/28 05:06:20;;;;;;;4.77;3.10;;;12.20;95.70;;;;;;2075860;28;20189;-83
2023/09/28 05:07:20;;;;;;;4.20;2.90;;;12.10;95.70;;;;;;2075992;28;20185;-81
2023/09/28 05:08:22;;;;;;;3.83;2.53;;;12.10;95.80;;;;;;2075105;28;20737;-82
2023/09/28 05:09:23;;;;;;;4.43;2.80;;;12.00;95.90;;;;;;2074316;28;20181;-81
2023/09/28 05:10:23;;;;;;;4.10;2.70;;;11.90;96.60;;;;;;2072667;28;20237;-83
2023/09/28 05:11:24;;;;;;;2.90;2.40;;;11.90;96.50;;;;;;2074518;28;20251;-85
2023/09/28 05:12:24;;;;;;;4.13;3.17;;;11.90;96.30;;;;;;2074746;28;20256;-82
2023/09/28 05:13:28;;;;;;;3.50;2.47;;;11.80;96.40;;;;;;2068056;28;20240;-83
2023/09/28 05:14:29;;;;;;;4.38;2.95;;;11.90;96.40;;;;;;2075449;28;20241;-83
2023/09/28 05:15:29;;;;;;;3.47;2.57;;;12.00;96.40;;;;;;2066190;28;20231;-83
2023/09/28 05:16:30;;;;;;;2.47;2.17;;;12.00;96.50;;;;;;2068432;28;20241;-84
2023/09/28 05:17:31;;;;;;;2.50;2.20;;;11.90;96.10;;;;;;2067168;28;20598;-84
2023/09/28 05:18:32;;;;;;;3.55;2.10;;;12.00;95.80;;;;;;2066802;28;20226;-82
2023/09/28 05:19:33;;;;;;;2.97;2.50;;;12.00;95.90;;;;;;2074157;28;20236;-81